createdAt,value
2022-09-23T00:02:33.737Z,99.90
2022-09-23T00:04:37.111Z,99.90
2022-09-23T00:06:41.217Z,99.90
2022-09-23T00:08:49.670Z,99.90
2022-09-23T00:12:59.705Z,99.90
2022-09-23T00:15:02.924Z,99.90
2022-09-23T00:17:07.030Z,99.90
2022-09-23T00:21:15.353Z,99.90
2022-09-23T00:25:22.259Z,99.90
2022-09-23T00:27:26.891Z,99.90
2022-09-23T00:29:32.562Z,99.90
2022-09-23T00:31:35.815Z,99.90
2022-09-23T00:33:40.583Z,99.90
2022-09-23T00:35:44.134Z,99.90
2022-09-23T00:37:47.477Z,99.90
2022-09-23T00:39:50.706Z,99.90
2022-09-23T00:41:54.186Z,99.90
2022-09-23T00:48:11.856Z,99.90
2022-09-23T00:52:24.329Z,99.90
2022-09-23T00:54:28.740Z,99.90
2022-09-23T01:00:46.467Z,99.90
2022-09-23T01:02:49.843Z,99.90
2022-09-23T01:04:53.352Z,99.90
2022-09-23T01:06:56.515Z,99.90
2022-09-23T01:09:00.316Z,99.90
2022-09-23T01:11:11.057Z,99.90
2022-09-23T01:15:25.900Z,99.90
2022-09-23T01:17:42.095Z,99.90
2022-09-23T01:20:06.873Z,99.90
2022-09-23T01:22:15.504Z,99.90
2022-09-23T01:24:50.262Z,99.90
2022-09-23T01:27:05.641Z,99.90
2022-09-23T01:29:38.216Z,99.90
2022-09-23T01:31:49.711Z,99.90
2022-09-23T01:36:08.729Z,99.90
2022-09-23T01:38:22.012Z,99.90
2022-09-23T01:40:32.303Z,99.90
2022-09-23T01:42:43.495Z,99.90
2022-09-23T01:44:52.549Z,99.90
2022-09-23T01:46:59.941Z,99.90
2022-09-23T01:49:10.393Z,99.90
2022-09-23T01:51:17.969Z,99.90
2022-09-23T01:53:26.603Z,99.90
2022-09-23T01:55:35.967Z,99.90
2022-09-23T01:57:42.808Z,99.90
2022-09-23T01:59:51.364Z,99.90
2022-09-23T02:02:00.713Z,99.90
2022-09-23T02:06:16.440Z,99.90
2022-09-23T02:08:23.590Z,99.90
2022-09-23T02:10:32.236Z,99.90
2022-09-23T02:14:48.161Z,99.90
2022-09-23T02:16:53.397Z,99.90
2022-09-23T02:19:01.998Z,99.90
2022-09-23T02:21:09.275Z,99.90
2022-09-23T02:23:14.678Z,99.90
2022-09-23T02:25:18.205Z,99.90
2022-09-23T02:27:27.018Z,99.90
2022-09-23T02:29:35.027Z,99.90
2022-09-23T02:31:43.405Z,99.90
2022-09-23T02:33:55.360Z,99.90
2022-09-23T02:38:21.647Z,99.90
2022-09-23T02:40:32.970Z,99.90
2022-09-23T02:42:44.205Z,99.90
2022-09-23T02:44:47.729Z,99.90
2022-09-23T02:49:01.477Z,99.90
2022-09-23T02:51:06.665Z,99.90
2022-09-23T02:53:10.499Z,99.90
2022-09-23T03:03:44.389Z,99.90
2022-09-23T03:05:51.968Z,99.90
2022-09-23T03:08:08.893Z,99.90
2022-09-23T03:10:22.045Z,99.90
2022-09-23T03:12:36.004Z,99.90
2022-09-23T03:19:00.437Z,99.90
2022-09-23T03:21:08.060Z,99.90
2022-09-23T03:25:23.907Z,99.90
2022-09-23T03:27:31.251Z,99.90
2022-09-23T03:29:37.409Z,99.90
2022-09-23T03:31:42.601Z,99.90
2022-09-23T03:36:12.933Z,99.90
2022-09-23T03:38:18.270Z,99.90
2022-09-23T03:40:25.847Z,99.90
2022-09-23T03:42:32.299Z,99.90
2022-09-23T03:44:39.381Z,99.90
2022-09-23T03:46:49.709Z,99.90
2022-09-23T03:48:53.177Z,99.90
2022-09-23T03:50:56.378Z,99.90
2022-09-23T03:53:00.421Z,99.90
2022-09-23T03:55:05.476Z,99.90
2022-09-23T03:57:09.176Z,99.90
2022-09-23T04:01:18.384Z,99.90
2022-09-23T04:03:22.780Z,99.90
2022-09-23T04:05:25.859Z,99.90
2022-09-23T04:07:29.309Z,99.90
2022-09-23T04:09:32.655Z,99.90
2022-09-23T04:11:37.368Z,99.90
2022-09-23T04:13:40.591Z,99.90
2022-09-23T04:15:43.875Z,99.90
2022-09-23T04:17:47.113Z,99.90
2022-09-23T04:23:57.266Z,99.90
2022-09-23T04:26:00.641Z,99.90
2022-09-23T04:28:05.366Z,99.90
2022-09-23T04:32:12.901Z,99.90
2022-09-23T04:34:17.484Z,99.90
2022-09-23T04:38:24.391Z,99.90
2022-09-23T04:40:27.913Z,99.90
2022-09-23T04:42:31.286Z,99.90
2022-09-23T04:44:36.187Z,99.90
2022-09-23T04:46:39.686Z,99.90
2022-09-23T04:48:43.685Z,99.90
2022-09-23T04:50:48.232Z,99.90
2022-09-23T04:52:51.420Z,99.90
2022-09-23T04:54:54.682Z,99.90
2022-09-23T04:56:58.269Z,99.90
2022-09-23T04:59:02.090Z,99.90
2022-09-23T05:01:16.346Z,99.90
2022-09-23T05:03:19.615Z,99.90
2022-09-23T05:05:23.728Z,99.90
2022-09-23T05:07:27.039Z,99.90
2022-09-23T05:09:30.373Z,99.90
2022-09-23T05:17:46.096Z,99.90
2022-09-23T05:19:49.528Z,99.90
2022-09-23T05:21:52.935Z,99.90
2022-09-23T05:23:59.077Z,99.90
2022-09-23T05:28:07.076Z,99.90
2022-09-23T05:30:11.719Z,99.90
2022-09-23T05:34:20.376Z,99.90
2022-09-23T05:38:28.531Z,99.90
2022-09-23T05:40:31.851Z,99.90
2022-09-23T05:42:35.624Z,99.90
2022-09-23T05:44:39.183Z,99.90
2022-09-23T05:46:42.555Z,99.90
2022-09-23T05:48:47.387Z,99.90
2022-09-23T05:51:03.988Z,99.90
2022-09-23T05:53:07.184Z,99.90
2022-09-23T05:55:11.693Z,99.90
2022-09-23T05:57:15.193Z,99.90
2022-09-23T05:59:18.421Z,99.90
2022-09-23T06:01:25.921Z,99.90
2022-09-23T06:03:29.573Z,99.90
2022-09-23T06:05:32.852Z,99.90
2022-09-23T06:07:38.315Z,99.90
2022-09-23T06:09:42.552Z,99.90
2022-09-23T06:11:46.862Z,99.90
2022-09-23T06:13:52.543Z,99.90
2022-09-23T06:15:59.943Z,99.90
2022-09-23T06:18:03.185Z,99.90
2022-09-23T06:20:07.093Z,99.90
2022-09-23T06:22:11.102Z,99.90
2022-09-23T06:24:19.665Z,99.90
2022-09-23T06:26:24.704Z,99.90
2022-09-23T06:28:32.163Z,99.90
2022-09-23T06:30:35.493Z,99.90
2022-09-23T06:32:38.864Z,99.90
2022-09-23T06:34:51.695Z,99.90
2022-09-23T06:36:55.816Z,99.90
2022-09-23T06:38:59.052Z,99.90
2022-09-23T06:41:04.267Z,99.90
2022-09-23T06:43:07.443Z,99.90
2022-09-23T06:45:13.256Z,99.90
2022-09-23T06:47:16.492Z,99.90
2022-09-23T06:49:22.694Z,99.90
2022-09-23T06:51:25.923Z,99.90
2022-09-23T06:53:32.315Z,99.90
2022-09-23T06:55:36.038Z,99.90
2022-09-23T06:57:41.582Z,99.90
2022-09-23T06:59:44.977Z,99.90
2022-09-23T07:10:03.322Z,96.50
2022-09-23T07:12:06.676Z,95.60
2022-09-23T07:16:15.134Z,91.50
2022-09-23T07:20:22.179Z,75.40
2022-09-23T07:22:26.495Z,77.00
2022-09-23T07:24:33.716Z,70.80
2022-09-23T07:26:36.995Z,70.10
2022-09-23T07:28:40.764Z,62.40
2022-09-23T07:30:57.331Z,65.30
2022-09-23T07:33:12.606Z,65.30
2022-09-23T07:35:24.203Z,58.70
2022-09-23T07:37:27.527Z,59.00
2022-09-23T07:39:30.834Z,58.30
2022-09-23T07:41:35.401Z,56.00
2022-09-23T07:45:45.466Z,53.30
2022-09-23T07:47:48.973Z,54.20
2022-09-23T07:49:54.215Z,53.00
2022-09-23T07:51:57.522Z,48.10
2022-09-23T07:54:01.117Z,48.30
2022-09-23T07:56:05.749Z,47.60
2022-09-23T08:02:19.175Z,44.50
2022-09-23T08:06:27.458Z,44.50
2022-09-23T08:10:34.554Z,41.10
2022-09-23T08:12:38.251Z,43.80
2022-09-23T08:16:45.920Z,38.10
2022-09-23T08:18:50.676Z,38.30
2022-09-23T08:20:53.988Z,39.20
2022-09-23T08:25:00.821Z,38.30
2022-09-23T08:27:04.182Z,39.60
2022-09-23T08:29:09.855Z,41.90
2022-09-23T08:35:28.653Z,39.20
2022-09-23T08:37:31.889Z,40.10
2022-09-23T08:41:49.432Z,37.80
2022-09-23T08:43:56.890Z,38.50
2022-09-23T08:46:03.556Z,39.90
2022-09-23T08:48:13.251Z,40.80
2022-09-23T08:50:20.410Z,36.50
2022-09-23T08:54:32.806Z,38.10
2022-09-23T08:56:38.875Z,37.90
2022-09-23T08:58:53.197Z,36.40
2022-09-23T09:03:15.841Z,36.50
2022-09-23T09:07:36.646Z,37.20
2022-09-23T09:09:46.200Z,37.80
2022-09-23T09:11:53.380Z,33.40
2022-09-23T09:14:04.454Z,33.90
2022-09-23T09:16:58.211Z,36.70
2022-09-23T09:23:23.025Z,34.30
2022-09-23T09:25:37.788Z,33.00
2022-09-23T09:27:42.462Z,32.60
2022-09-23T09:31:54.264Z,33.20
2022-09-23T09:34:03.820Z,38.30
2022-09-23T09:38:14.016Z,34.10
2022-09-23T09:42:28.325Z,34.50
2022-09-23T09:51:23.285Z,37.10
2022-09-23T10:01:47.814Z,35.80
2022-09-23T10:03:56.908Z,32.10
2022-09-23T10:06:15.740Z,34.40
2022-09-23T10:08:26.753Z,36.70
2022-09-23T10:19:21.586Z,35.70
2022-09-23T10:21:28.112Z,36.20
2022-09-23T10:23:33.524Z,35.50
2022-09-23T10:25:37.984Z,37.10
2022-09-23T10:27:41.270Z,36.00
2022-09-23T10:32:25.759Z,34.50
2022-09-23T10:34:30.356Z,34.40
2022-09-23T10:36:35.017Z,35.10
2022-09-23T10:38:38.801Z,35.20
2022-09-23T10:41:07.318Z,35.80
2022-09-23T10:50:33.162Z,33.10
2022-09-23T10:52:54.241Z,36.80
2022-09-23T10:59:50.398Z,38.60
2022-09-23T11:06:49.118Z,37.20
2022-09-23T11:09:20.155Z,36.80
2022-09-23T11:13:54.700Z,34.40
2022-09-23T11:16:11.569Z,35.40
2022-09-23T11:18:52.167Z,36.40
2022-09-23T11:21:07.333Z,36.00
2022-09-23T11:25:41.179Z,32.40
2022-09-23T11:28:21.001Z,35.00
2022-09-23T11:33:07.318Z,63.00
2022-09-23T11:35:17.711Z,37.10
2022-09-23T11:37:26.446Z,33.20
2022-09-23T11:41:53.957Z,35.20
2022-09-23T11:44:04.631Z,34.90
2022-09-23T11:46:14.284Z,35.10
2022-09-23T11:48:21.497Z,36.00
2022-09-23T11:50:31.958Z,37.50
2022-09-23T11:52:41.576Z,37.90
2022-09-23T11:54:50.221Z,35.10
2022-09-23T11:59:04.951Z,38.50
2022-09-23T12:03:19.991Z,32.80
2022-09-23T12:05:27.278Z,34.50
2022-09-23T12:07:40.667Z,34.00
2022-09-23T12:09:58.401Z,38.70
2022-09-23T12:12:14.226Z,35.80
2022-09-23T12:16:56.414Z,38.50
2022-09-23T12:19:12.887Z,39.20
2022-09-23T12:24:19.256Z,35.70
2022-09-23T12:28:31.331Z,38.80
2022-09-23T12:30:36.619Z,35.00
2022-09-23T12:32:41.327Z,38.10
2022-09-23T12:41:21.332Z,36.70
2022-09-23T12:43:33.227Z,36.90
2022-09-23T12:45:40.023Z,36.40
2022-09-23T12:47:44.260Z,37.50
2022-09-23T12:49:47.877Z,39.50
2022-09-23T12:52:26.208Z,39.50
2022-09-23T12:57:12.575Z,35.90
2022-09-23T12:59:26.638Z,39.60
2022-09-23T13:01:36.589Z,39.40
2022-09-23T13:04:04.063Z,37.20
2022-09-23T13:06:27.084Z,38.10
2022-09-23T13:08:30.805Z,40.10
2022-09-23T13:12:43.332Z,36.60
2022-09-23T13:16:51.893Z,35.30
2022-09-23T13:18:56.917Z,38.20
2022-09-23T13:21:00.459Z,36.80
2022-09-23T13:23:21.414Z,36.50
2022-09-23T13:25:27.530Z,36.00
2022-09-23T13:27:34.753Z,41.30
2022-09-23T13:29:43.650Z,37.90
2022-09-23T13:31:48.035Z,37.70
2022-09-23T13:33:57.012Z,40.90
2022-09-23T13:36:04.223Z,41.10
2022-09-23T13:38:20.494Z,39.10
2022-09-23T13:40:25.557Z,37.80
2022-09-23T13:42:31.113Z,38.50
2022-09-23T13:44:34.359Z,38.50
2022-09-23T13:46:46.908Z,38.00
2022-09-23T13:48:54.795Z,40.10
2022-09-23T13:50:58.404Z,40.00
2022-09-23T13:55:07.191Z,41.80
2022-09-23T13:59:32.014Z,41.40
2022-09-23T14:01:36.844Z,44.30
2022-09-23T14:03:41.699Z,42.90
2022-09-23T14:05:45.396Z,43.00
2022-09-23T14:07:48.903Z,43.40
2022-09-23T14:12:00.285Z,44.10
2022-09-23T14:14:08.029Z,42.10
2022-09-23T14:16:14.884Z,44.30
2022-09-23T14:18:27.493Z,43.10
2022-09-23T14:20:32.371Z,42.60
2022-09-23T14:22:35.683Z,46.90
2022-09-23T14:24:39.725Z,44.90
2022-09-23T14:26:45.542Z,45.00
2022-09-23T14:28:49.889Z,46.80
2022-09-23T14:30:57.560Z,48.30
2022-09-23T14:33:04.404Z,47.40
2022-09-23T14:35:21.745Z,47.80
2022-09-23T14:37:51.248Z,47.20
2022-09-23T14:39:57.664Z,48.10
2022-09-23T14:42:01.517Z,50.50
2022-09-23T14:44:05.279Z,51.00
2022-09-23T14:46:19.666Z,53.50
2022-09-23T14:48:25.819Z,50.90
2022-09-23T14:50:47.217Z,51.00
2022-09-23T14:52:53.251Z,51.80
2022-09-23T14:54:56.588Z,52.40
2022-09-23T14:57:00.418Z,53.60
2022-09-23T14:59:03.901Z,56.10
2022-09-23T15:01:37.327Z,53.20
2022-09-23T15:03:48.583Z,54.90
2022-09-23T15:05:57.877Z,55.90
2022-09-23T15:08:03.937Z,56.50
2022-09-23T15:10:09.939Z,55.80
2022-09-23T15:12:15.812Z,57.50
2022-09-23T15:14:37.160Z,55.40
2022-09-23T15:16:41.871Z,56.20
2022-09-23T15:18:47.218Z,57.20
2022-09-23T15:20:52.490Z,57.90
2022-09-23T15:22:57.104Z,55.70
2022-09-23T15:25:17.721Z,58.80
2022-09-23T15:27:31.456Z,59.50
2022-09-23T15:29:34.681Z,59.30
2022-09-23T15:31:39.063Z,62.30
2022-09-23T15:33:42.631Z,61.50
2022-09-23T15:35:49.512Z,62.20
2022-09-23T15:37:54.082Z,67.70
2022-09-23T15:39:57.286Z,64.00
2022-09-23T15:42:02.205Z,67.10
2022-09-23T15:44:12.985Z,66.50
2022-09-23T15:46:20.588Z,68.30
2022-09-23T15:48:26.483Z,71.20
2022-09-23T15:50:31.323Z,73.00
2022-09-23T15:52:34.859Z,74.20
2022-09-23T15:54:38.142Z,75.50
2022-09-23T15:56:41.641Z,78.90
2022-09-23T15:58:47.107Z,89.90
2022-09-23T16:00:56.210Z,92.90
2022-09-23T16:03:01.138Z,94.90
2022-09-23T16:05:06.042Z,97.10
2022-09-23T16:07:14.452Z,98.50
2022-09-23T16:09:17.811Z,99.90
2022-09-23T16:11:24.266Z,99.90
2022-09-23T16:13:27.660Z,99.90
2022-09-23T16:15:34.403Z,99.90
2022-09-23T16:17:37.830Z,99.90
2022-09-23T16:19:41.174Z,99.90
2022-09-23T16:21:44.718Z,99.90
2022-09-23T16:23:50.132Z,99.90
2022-09-23T16:25:53.435Z,99.90
2022-09-23T16:27:58.077Z,99.90
2022-09-23T16:30:01.489Z,99.90
2022-09-23T16:32:06.783Z,99.90
2022-09-23T16:34:10.228Z,99.90
2022-09-23T16:36:18.814Z,99.90
2022-09-23T16:38:22.341Z,99.90
2022-09-23T16:40:26.004Z,99.90
2022-09-23T16:42:29.562Z,99.90
2022-09-23T16:44:33.279Z,99.90
2022-09-23T16:46:36.864Z,99.90
2022-09-23T16:48:43.692Z,99.90
2022-09-23T16:50:49.307Z,99.90
2022-09-23T16:52:55.330Z,99.90
2022-09-23T16:54:58.560Z,99.90
2022-09-23T16:57:02.235Z,99.90
2022-09-23T16:59:05.896Z,99.90
2022-09-23T17:01:30.270Z,99.90
2022-09-23T17:03:41.780Z,99.90
2022-09-23T17:05:47.064Z,99.90
2022-09-23T17:07:50.479Z,99.90
2022-09-23T17:09:53.855Z,99.90
2022-09-23T17:12:04.429Z,99.90
2022-09-23T17:14:07.961Z,99.90
2022-09-23T17:16:12.870Z,99.90
2022-09-23T17:18:19.430Z,99.90
2022-09-23T17:20:23.255Z,99.90
2022-09-23T17:22:31.151Z,99.90
2022-09-23T17:24:34.618Z,99.90
2022-09-23T17:26:38.367Z,99.90
2022-09-23T17:28:42.019Z,99.90
2022-09-23T17:30:45.372Z,99.90
2022-09-23T17:32:48.728Z,99.90
2022-09-23T17:34:52.117Z,99.90
2022-09-23T17:36:55.640Z,99.90
2022-09-23T17:39:00.258Z,99.90
2022-09-23T17:41:04.881Z,99.90
2022-09-23T17:43:08.602Z,99.90
2022-09-23T17:45:13.458Z,99.90
2022-09-23T17:47:16.777Z,99.90
2022-09-23T17:49:20.371Z,99.90
2022-09-23T17:51:25.306Z,99.90
2022-09-23T17:53:35.054Z,99.90
2022-09-23T17:55:39.898Z,99.90
2022-09-23T17:57:43.262Z,99.90
2022-09-23T17:59:48.846Z,99.90
2022-09-23T18:01:52.206Z,99.90
2022-09-23T18:03:56.226Z,99.90
2022-09-23T18:06:07.962Z,99.90
2022-09-23T18:08:11.298Z,99.90
2022-09-23T18:10:14.930Z,99.90
2022-09-23T18:12:19.779Z,99.90
2022-09-23T18:14:24.424Z,99.90
2022-09-23T18:16:29.904Z,99.90
2022-09-23T18:18:33.283Z,99.90
2022-09-23T18:20:36.633Z,99.90
2022-09-23T18:22:40.044Z,99.90
2022-09-23T18:24:43.266Z,99.90
2022-09-23T18:26:47.391Z,99.90
2022-09-23T18:28:55.647Z,99.90
2022-09-23T18:31:00.072Z,99.90
2022-09-23T18:33:03.454Z,99.90
2022-09-23T18:35:07.873Z,99.90
2022-09-23T18:37:15.659Z,99.90
2022-09-23T18:39:19.758Z,99.90
2022-09-23T18:41:23.584Z,99.90
2022-09-23T18:43:33.776Z,99.90
2022-09-23T18:45:40.767Z,99.90
2022-09-23T18:48:01.307Z,99.90
2022-09-23T18:50:22.182Z,99.90
2022-09-23T18:52:27.306Z,99.90
2022-09-23T18:54:31.533Z,99.90
2022-09-23T18:56:41.091Z,99.90
2022-09-23T18:58:47.764Z,99.90
2022-09-23T19:00:53.442Z,99.90
2022-09-23T19:02:57.719Z,99.90
2022-09-23T19:05:02.113Z,99.90
2022-09-23T19:07:05.643Z,99.90
2022-09-23T19:09:09.404Z,99.90
2022-09-23T19:11:13.955Z,99.90
2022-09-23T19:13:17.274Z,99.90
2022-09-23T19:15:20.548Z,99.90
2022-09-23T19:17:25.390Z,99.90
2022-09-23T19:19:28.977Z,99.90
2022-09-23T19:21:33.532Z,99.90
2022-09-23T19:23:37.004Z,99.90
2022-09-23T19:25:40.542Z,99.90
2022-09-23T19:27:43.827Z,99.90
2022-09-23T19:29:48.144Z,99.90
2022-09-23T19:31:51.686Z,99.90
2022-09-23T19:33:59.280Z,99.90
2022-09-23T19:36:02.952Z,99.90
2022-09-23T19:38:07.337Z,99.90
2022-09-23T19:40:11.733Z,99.90
2022-09-23T19:42:15.047Z,99.90
2022-09-23T19:44:20.211Z,99.90
2022-09-23T19:46:23.979Z,99.90
2022-09-23T19:48:27.347Z,99.90
2022-09-23T19:50:34.431Z,99.90
2022-09-23T19:52:37.894Z,99.90
2022-09-23T19:54:41.803Z,99.90
2022-09-23T19:56:45.096Z,99.90
2022-09-23T19:58:51.532Z,99.90
2022-09-23T20:00:54.960Z,99.90
2022-09-23T20:02:58.723Z,99.90
2022-09-23T20:05:02.157Z,99.90
2022-09-23T20:07:08.977Z,99.90
2022-09-23T20:09:12.406Z,99.90
2022-09-23T20:11:17.871Z,99.90
2022-09-23T20:13:21.703Z,99.90
2022-09-23T20:15:25.049Z,99.90
2022-09-23T20:17:29.398Z,99.90
2022-09-23T20:19:32.720Z,99.90
2022-09-23T20:21:36.118Z,99.90
2022-09-23T20:23:41.116Z,99.90
2022-09-23T20:26:01.815Z,99.90
2022-09-23T20:28:05.835Z,99.90
2022-09-23T20:30:10.468Z,99.90
2022-09-23T20:32:14.548Z,99.90
2022-09-23T20:34:18.651Z,99.90
2022-09-23T20:36:22.259Z,99.90
2022-09-23T20:38:25.454Z,99.90
2022-09-23T20:40:30.169Z,99.90
2022-09-23T20:42:35.192Z,99.90
2022-09-23T20:44:38.527Z,99.90
2022-09-23T20:46:47.448Z,99.90
2022-09-23T20:48:51.687Z,99.90
2022-09-23T20:50:54.975Z,99.90
2022-09-23T20:52:58.192Z,99.90
2022-09-23T20:55:02.243Z,99.90
2022-09-23T20:57:07.030Z,99.90
2022-09-23T20:59:11.539Z,99.90
2022-09-23T21:01:15.705Z,99.90
2022-09-23T21:03:19.267Z,99.90
2022-09-23T21:05:22.974Z,99.90
2022-09-23T21:07:26.668Z,99.90
2022-09-23T21:09:32.038Z,99.90
2022-09-23T21:11:35.489Z,99.90
2022-09-23T21:13:40.586Z,99.90
2022-09-23T21:15:43.920Z,99.90
2022-09-23T21:17:47.476Z,99.90
2022-09-23T21:19:50.833Z,99.90
2022-09-23T21:21:54.294Z,99.90
2022-09-23T21:24:17.316Z,99.90
2022-09-23T21:26:26.109Z,99.90
2022-09-23T21:28:32.470Z,99.90
2022-09-23T21:30:37.211Z,99.90
2022-09-23T21:32:40.600Z,99.90
2022-09-23T21:34:43.811Z,99.90
2022-09-23T21:36:49.520Z,99.90
2022-09-23T21:38:53.419Z,99.90
2022-09-23T21:40:59.403Z,99.90
2022-09-23T21:43:02.826Z,99.90
2022-09-23T21:45:07.330Z,99.90
2022-09-23T21:47:12.051Z,99.90
2022-09-23T21:49:15.746Z,99.90
2022-09-23T21:51:21.003Z,99.90
2022-09-23T21:53:24.943Z,99.90
2022-09-23T21:55:28.248Z,99.90
2022-09-23T21:57:31.936Z,99.90
2022-09-23T21:59:35.208Z,99.90
2022-09-23T22:01:40.454Z,99.90
2022-09-23T22:03:46.062Z,99.90
2022-09-23T22:05:49.659Z,99.90
2022-09-23T22:07:54.266Z,99.90
2022-09-23T22:09:57.612Z,99.90
2022-09-23T22:12:08.694Z,99.90
2022-09-23T22:14:13.985Z,99.90
2022-09-23T22:16:17.250Z,99.90
2022-09-23T22:18:20.739Z,99.90
2022-09-23T22:20:25.570Z,99.90
2022-09-23T22:22:28.782Z,99.90
2022-09-23T22:24:32.196Z,99.90
2022-09-23T22:26:38.213Z,99.90
2022-09-23T22:28:58.884Z,99.90
2022-09-23T22:31:19.698Z,99.90
2022-09-23T22:33:23.040Z,99.90
2022-09-23T22:35:27.777Z,99.90
2022-09-23T22:37:34.311Z,99.90
2022-09-23T22:39:37.956Z,99.90
2022-09-23T22:41:41.452Z,99.90
2022-09-23T22:43:44.713Z,99.90
2022-09-23T22:45:51.740Z,99.90
2022-09-23T22:47:54.971Z,99.90
2022-09-23T22:49:58.209Z,99.90
2022-09-23T22:52:08.096Z,99.90
2022-09-23T22:54:12.199Z,99.90
2022-09-23T22:56:15.592Z,99.90
2022-09-23T22:58:31.747Z,99.90
2022-09-23T23:00:37.293Z,99.90
2022-09-23T23:02:42.643Z,99.90
2022-09-23T23:04:47.288Z,99.90
2022-09-23T23:06:50.985Z,99.90
2022-09-23T23:08:58.620Z,99.90
2022-09-23T23:11:06.111Z,99.90
2022-09-23T23:13:10.825Z,99.90
2022-09-23T23:15:14.246Z,99.90
2022-09-23T23:17:18.905Z,99.90
2022-09-23T23:19:23.649Z,99.90
2022-09-23T23:21:26.961Z,99.90
2022-09-23T23:23:30.273Z,99.90
2022-09-23T23:25:35.005Z,99.90
2022-09-23T23:27:38.345Z,99.90
2022-09-23T23:29:41.720Z,99.90
2022-09-23T23:31:45.309Z,99.90
2022-09-23T23:33:48.983Z,99.90
2022-09-23T23:35:52.643Z,99.90
2022-09-23T23:37:55.997Z,99.90
2022-09-23T23:39:59.246Z,99.90
2022-09-23T23:42:05.105Z,99.90
2022-09-23T23:44:09.076Z,99.90
2022-09-23T23:46:13.150Z,99.90
2022-09-23T23:48:16.450Z,99.90
2022-09-23T23:50:19.729Z,99.90
2022-09-23T23:52:23.166Z,99.90
2022-09-23T23:54:26.406Z,99.90
2022-09-23T23:56:32.167Z,99.90
2022-09-23T23:58:37.442Z,99.90
